Аэропорт: Белгород . Белгород

ICAO: UUOB

METAR:
2019-09-16 01:00:00
UUOB 160100Z 23005MPS CAVOK 12/02 Q1014 R29/010060 NOSIG
METAR:
Информация по данной станции не доступна